• Join FlightAware (Why Join?)
  • Login
  • US Flag 
07:16AM EDT


 

Airport Tracker/Info


-or-


 

Live Flight TrackerFlight Track Log ✈ UPS9600 ✈ 10-May-2014 ✈ KOAK - KONT

Flight Track Log - Related Links

Times and Time Zones

All times are in EDT time to prevent confusion due to time zone crossing. See the UPS9600 flight status page for this flight to view local times or setup timezone preferences in your user account.

Time Position Orientation Groundspeed Altitude Reporting Facility
EDT Latitude Longitude Course Direction KTS MPH feet Rate Location/Type
01:03PM 37.7300 -122.2580 310° West 158 182 2,300  Level FlightAware ADS-B (EPWA / WAW)
01:04PM 37.7360 -122.2670 309° West 188 216 2,300 -300 Level FlightAware ADS-B
01:04PM 37.7412 -122.2753 310° West 205 236 2,200 -780 Descending FlightAware ADS-B (EPWA / WAW)
01:04PM 37.7455 -122.2820 309° West 206 237 2,100 1,260 Descending FlightAware ADS-B
01:04PM 37.7646 -122.3110 302° West 217 250 3,000 1,680 Climbing FlightAware ADS-B (EPWA / WAW)
01:05PM 37.7665 -122.3150 301° West 216 249 3,100 3,300 Climbing FlightAware ADS-B
01:05PM 37.7702 -122.3360 296° West 217 250 4,100 3,960 Climbing FlightAware ADS-B
01:05PM 37.7705 -122.3385 280° West 217 250 4,300 4,260 Climbing FlightAware ADS-B (EPWA / WAW)
01:05PM 37.7725 -122.3530 280° West 212 244 5,100 3,900 Climbing FlightAware ADS-B
01:05PM 37.7740 -122.3631 282° West 219 252 5,600 3,360 Climbing FlightAware ADS-B (EPWA / WAW)
01:05PM 37.7756 -122.3740 281° West 226 260 6,000 3,840 Climbing FlightAware ADS-B
01:05PM 37.7774 -122.3848 279° West 244 281 6,700 3,180 Climbing FlightAware ADS-B (EPWA / WAW)
01:06PM 37.7781 -122.3910 279° West 244 281 6,700 2,640 Level FlightAware ADS-B
01:06PM 37.7780 -122.3990 269° West 252 290 7,100 6,600 Climbing FlightAware ADS-B
01:06PM 37.7769 -122.4059 261° West 258 297 7,800 4,260 Climbing FlightAware ADS-B (KPAO)
01:06PM 37.7722 -122.4183 242° Southwest 271 312 8,100 2,760 Climbing FlightAware ADS-B (EPWA / WAW)
01:06PM 37.7541 -122.4383 206° Southwest 292 336 9,100 3,000 Climbing FlightAware ADS-B (EPWA / WAW)
01:06PM 37.7527 -122.4390 207° Southwest 289 333 9,100 1,500 Level FlightAware ADS-B
01:06PM 37.7482 -122.4410 200° South 294 338 9,200 2,100 Climbing FlightAware ADS-B
01:06PM 37.7341 -122.4446 189° South 307 353 9,600 1,560 Climbing FlightAware ADS-B (EPWA / WAW)
01:07PM 37.7232 -122.4470 188° South 307 353 9,700 480 Climbing FlightAware ADS-B
01:07PM 37.7019 -122.4510 189° South 307 353 9,800 300 Climbing FlightAware ADS-B
01:07PM 37.6967 -122.4517 190° South 307 353 9,800  Level FlightAware ADS-B (EPWA / WAW)
01:07PM 37.6795 -122.4550 189° South 306 352 9,800  Level FlightAware ADS-B
01:07PM 37.6717 -122.4567 190° South 306 352 9,800  Level FlightAware ADS-B (EPWA / WAW)
01:07PM 37.6536 -122.4600 189° South 306 352 9,800 600 Level FlightAware ADS-B
01:07PM 37.6450 -122.4620 190° South 303 349 10,000 960 Climbing FlightAware ADS-B (EPWA / WAW)
01:08PM 37.6108 -122.4690 189° South 307 353 10,300 960 Climbing FlightAware ADS-B
01:08PM 37.5979 -122.4731 198° South 310 357 10,600 1,440 Climbing FlightAware ADS-B (KPAO)
01:08PM 37.5648 -122.4860 198° South 327 376 11,100 2,820 Climbing FlightAware ADS-B
01:09PM 37.5494 -122.4926 198° South 356 410 12,500 4,320 Climbing FlightAware ADS-B (KPAO)
01:09PM 37.5189 -122.5040 196° South 364 419 13,200 4,500 Climbing FlightAware ADS-B
01:09PM 37.5038 -122.5080 189° South 373 429 14,000 5,280 Climbing FlightAware ADS-B
01:09PM 37.4898 -122.5090 183° South 383 441 14,700 4,920 Climbing FlightAware ADS-B
01:09PM 37.4735 -122.5078 173° South 397 457 15,400 4,980 Climbing FlightAware ADS-B (KSCK)
01:09PM 37.4680 -122.5060 171° South 400 460 15,700 4,500 Climbing FlightAware ADS-B
01:09PM 37.4589 -122.5030 165° South 408 470 16,000 4,320 Climbing FlightAware ADS-B
01:10PM 37.4480 -122.4980 157° South 421 484 16,500 4,560 Climbing FlightAware ADS-B
01:10PM 37.4371 -122.4908 150° Southeast 429 494 17,000 3,960 Climbing FlightAware ADS-B (KSCK)
01:10PM 37.4319 -122.4860 147° Southeast 434 499 17,100 3,180 Climbing FlightAware ADS-B
01:10PM 37.4158 -122.4690 135° Southeast 445 512 17,700 3,180 Climbing FlightAware ADS-B
01:10PM 37.4107 -122.4620 132° Southeast 448 516 17,900 2,640 Climbing FlightAware ADS-B
01:10PM 37.4040 -122.4520 129° Southeast 449 517 18,100 1,320 Climbing FlightAware ADS-B
01:11PM 37.3663 -122.3870 125° Southeast 454 522 18,700 1,500 Climbing FlightAware ADS-B
01:11PM 37.3575 -122.3712 125° Southeast 457 526 19,100 3,360 Climbing FlightAware ADS-B (KSCK)
01:11PM 37.3295 -122.3210 125° Southeast 464 534 20,400 3,780 Climbing FlightAware ADS-B
01:11PM 37.3035 -122.2757 126° Southeast 473 544 21,700 3,840 Climbing FlightAware ADS-B (KSCK)
01:12PM 37.2905 -122.2530 126° Southeast 477 549 22,400 3,780 Climbing FlightAware ADS-B
01:12PM 37.2689 -122.2165 127° Southeast 488 562 23,800 3,960 Climbing FlightAware ADS-B (KPAO)
01:12PM 37.2498 -122.1850 127° Southeast 490 564 24,400 3,780 Climbing FlightAware ADS-B
01:13PM 37.2070 -122.1130 127° Southeast 501 577 26,200 3,300 Climbing FlightAware ADS-B
01:13PM 37.1976 -122.0979 127° Southeast 506 582 26,500 4,200 Climbing FlightAware ADS-B (KSCK)
01:13PM 37.1555 -122.0280 127° Southeast 497 572 28,800 4,320 Climbing FlightAware ADS-B
01:13PM 37.1382 -121.9993 127° Southeast 497 572 29,600 2,460 Climbing FlightAware ADS-B (KSCK)
01:14PM 37.0847 -121.9110 127° Southeast 506 582 30,900 1,920 Climbing FlightAware ADS-B
01:14PM 37.0840 -121.9099 127° Southeast 507 583 30,900 180 Level FlightAware ADS-B (KSCK)
01:15PM 37.0409 -121.8390 127° Southeast 510 587 31,000 120 Climbing FlightAware ADS-B
01:15PM 37.0246 -121.8116 127° Southeast 508 585 31,000  Level FlightAware ADS-B (KSCK)
01:15PM 36.9954 -121.7640 127° Southeast 504 580 31,000  Level FlightAware ADS-B
01:15PM 36.9664 -121.7158 127° Southeast 500 575 31,000  Level FlightAware ADS-B (KSCK)
01:16PM 36.9183 -121.6370 127° Southeast 497 572 31,000  Level FlightAware ADS-B
01:16PM 36.9126 -121.6273 127° Southeast 497 572 31,000  Level FlightAware ADS-B (KSCK)
01:17PM 36.8739 -121.5640 127° Southeast 497 572 31,000  Level FlightAware ADS-B
01:17PM 36.8651 -121.5493 127° Southeast 497 572 31,000  Level FlightAware ADS-B (KSCK)
01:17PM 36.8253 -121.4840 127° Southeast 496 571 31,000  Level FlightAware ADS-B
01:18PM 36.7829 -121.4140 127° Southeast 495 570 31,000  Level FlightAware ADS-B
01:18PM 36.7469 -121.3556 127° Southeast 495 570 31,000  Level FlightAware ADS-B (KSCK)
01:19PM 36.6906 -121.2635 127° Southeast 495 570 31,000  Level FlightAware ADS-B (KSCK)
01:19PM 36.6348 -121.1728 127° Southeast 495 570 31,000  Level FlightAware ADS-B (KSCK)
01:20PM 36.5642 -121.0580 127° Southeast 495 570 31,000  Level FlightAware ADS-B
01:21PM 36.5217 -120.9900 128° Southeast 496 571 31,000  Level FlightAware ADS-B
01:22PM 36.4432 -120.8630 128° Southeast 496 571 31,000  Level FlightAware ADS-B
01:22PM 36.4004 -120.7940 128° Southeast 496 571 31,000  Level FlightAware ADS-B
01:24PM 36.2655 -120.5780 128° Southeast 494 568 31,000  Level FlightAware ADS-B
01:24PM 36.2222 -120.5090 128° Southeast 494 568 31,000  Level FlightAware ADS-B
01:28PM 35.9565 -120.0882 128° Southeast 490 564 31,000  Level FlightAware ADS-B
01:28PM 35.8789 -119.9664 128° Southeast 487 560 31,000  Level FlightAware ADS-B
01:31PM 35.6700 -119.6404 128° Southeast 483 556 31,000  Level FlightAware ADS-B
01:32PM 35.5974 -119.5277 128° Southeast 482 555 31,000  Level FlightAware ADS-B
01:33PM 35.5435 -119.4445 129° Southeast 480 552 31,000  Level FlightAware ADS-B
01:34PM 35.4339 -119.2756 129° Southeast 478 550 31,000  Level FlightAware ADS-B
01:35PM 35.3748 -119.1849 129° Southeast 477 549 31,000  Level FlightAware ADS-B
01:35PM 35.2949 -119.0627 129° Southeast 475 547 31,000  Level FlightAware ADS-B
01:36PM 35.2453 -118.9869 129° Southeast 474 545 31,000  Level FlightAware ADS-B
01:37PM 35.1837 -118.8932 129° Southeast 472 543 31,000  Level FlightAware ADS-B
01:38PM 35.0971 -118.7618 129° Southeast 470 541 31,000 -240 Level FlightAware ADS-B
01:39PM 34.9857 -118.5932 129° Southeast 466 536 30,500 -1,020 Descending FlightAware ADS-B
01:40PM 34.9234 -118.4999 129° Southeast 466 536 28,900 -2,220 Descending FlightAware ADS-B
01:41PM 34.8772 -118.4303 129° Southeast 460 529 27,400 -2,280 Descending FlightAware ADS-B
01:41PM 34.8244 -118.3516 129° Southeast 454 522 26,100 -2,160 Descending FlightAware ADS-B
01:42PM 34.7612 -118.2570 129° Southeast 450 518 24,400 -1,620 Descending FlightAware ADS-B
01:43PM 34.6657 -118.1146 129° Southeast 425 489 22,700 -1,320 Descending FlightAware ADS-B
01:44PM 34.6503 -118.0914 128° Southeast 425 489 22,500 -1,500 Descending FlightAware ADS-B (KEMT)
01:44PM 34.6091 -118.0152 120° Southeast 426 490 21,500 -1,800 Descending FlightAware ADS-B
01:45PM 34.5776 -117.9469 119° Southeast 419 482 20,400 -2,040 Descending FlightAware ADS-B
01:45PM 34.5479 -117.8811 119° Southeast 414 476 19,300 -2,040 Descending FlightAware ADS-B (KEMT)
01:46PM 34.5237 -117.8275 119° Southeast 408 470 18,000 -1,980 Descending FlightAware ADS-B (KEMT)
01:47PM 34.4756 -117.7229 119° Southeast 401 461 16,700 -1,980 Descending FlightAware ADS-B
01:47PM 34.4398 -117.6451 119° Southeast 394 453 15,400 -2,100 Descending FlightAware ADS-B
01:48PM 34.4118 -117.5847 119° Southeast 385 443 14,200 -1,380 Descending FlightAware ADS-B (KEMT)
01:48PM 34.3782 -117.5117 119° Southeast 362 417 13,800 -540 Descending FlightAware ADS-B (KEMT)
01:49PM 34.3388 -117.4267 119° Southeast 346 398 13,400 -540 Descending FlightAware ADS-B
01:50PM 34.3064 -117.3619 130° Southeast 341 392 13,000 -780 Descending FlightAware ADS-B (KEMT)
01:50PM 34.2914 -117.3461 148° Southeast 328 377 12,700 -2,640 Descending FlightAware ADS-B
01:51PM 34.3064 -117.3619 132° Southeast 340 391 11,300 -2,700 Descending FlightAware ADS-B (KEMT)
01:51PM 34.2068 -117.3132 160° South 305 351 10,100 -2,220 Descending FlightAware ADS-B
01:51PM 34.2253 -117.3195 144° Southeast 308 354 9,600 -2,580 Descending FlightAware ADS-B
01:52PM 34.1676 -117.2787 142° Southeast 308 354 8,700 -2,700 Descending FlightAware ADS-B
01:52PM 34.1512 -117.2638 143° Southeast 305 351 7,800 -2,520 Descending FlightAware ADS-B
01:52PM 34.1230 -117.2403 153° Southeast 294 338 7,100 -2,400 Descending FlightAware ADS-B
01:52PM 34.1257 -117.2418 161° South 292 336 6,800 -2,820 Descending FlightAware ADS-B
01:53PM 34.1107 -117.2366 174° South 287 330 6,400 -1,500 Descending FlightAware ADS-B
01:53PM 34.0906 -117.2391 194° South 277 319 6,200 -1,920 Descending FlightAware ADS-B
01:53PM 34.0767 -117.2461 212° Southwest 269 310 5,600 -2,640 Descending FlightAware ADS-B
01:53PM 34.0596 -117.2653 213° Southwest 269 310 4,900 -1,500 Descending FlightAware ADS-B
01:54PM 34.0564 -117.3186 213° Southwest 256 295 4,000 -540 Descending Los Angeles Center
01:55PM 34.0556 -117.3869 269° West 226 260 4,000 -480 Level Los Angeles Center
01:56PM 34.0558 -117.4461 270° West 199 229 3,100 -780 Descending Los Angeles Center
01:57PM 34.0556 -117.4911 270° West 160 184 2,400 -780 Descending Los Angeles Center
01:58PM 34.0558 -117.5406 270° West 136 157 1,600 -720 Descending Los Angeles Center
01:59PM 34.0550 -117.5814 269° West 129 148 1,000 -600 Descending Los Angeles Center
02:01PM 34.0500 -117.6000 270° West  Level FlightAware Approximate
02:08PM 34.0560 -117.6012 270° West  Level Estimated